Time;durP1;ratioP1;P1;durP2;ratioP2;P2;SDS_P1;SDS_P2;PMS_P1;PMS_P2;Temp;Humidity;BMP_temperature;BMP_pressure;BME280_temperature;BME280_humidity;BME280_pressure;Samples;Min_cycle;Max_cycle;Signal;HPM_P1;HPM_P2
2021/04/08 00:02:02;;;;;;;;;;;3.60;82.20;;;;;;4262513;33;36067;-76
2021/04/08 00:04:38;;;;;;;;;;;3.60;82.20;;;;;;4275146;33;20006;-76
2021/04/08 00:07:10;;;;;;;;;;;3.50;82.20;;;;;;4274311;33;38170;-76
2021/04/08 00:09:42;;;;;;;;;;;3.60;82.20;;;;;;4262154;33;45030;-76
2021/04/08 00:12:20;;;;;;;;;;;3.60;82.20;;;;;;4274064;33;39002;-76
2021/04/08 00:14:53;;;;;;;;;;;3.60;82.20;;;;;;4287157;33;45269;-76
2021/04/08 00:17:25;;;;;;;;;;;3.60;83.00;;;;;;4287068;33;44100;-76
2021/04/08 00:19:57;;;;;;;;;;;3.60;82.20;;;;;;4276089;33;20522;-76
2021/04/08 00:22:33;;;;;;;;;;;3.60;82.30;;;;;;4275582;33;20077;-76
2021/04/08 00:25:11;;;;;;;;;;;3.60;82.30;;;;;;4275212;33;20008;-76
2021/04/08 00:27:44;;;;;;;;;;;3.60;82.30;;;;;;4275315;33;20040;-76
2021/04/08 00:30:19;;;;;;;;;;;3.60;82.30;;;;;;4287328;33;34740;-76
2021/04/08 00:32:57;;;;;;;;;;;3.50;82.30;;;;;;4286866;33;43672;-76
2021/04/08 00:35:29;;;;;;;;;;;3.50;82.40;;;;;;4288188;33;20434;-76
2021/04/08 00:38:06;;;;;;;;;;;3.60;82.40;;;;;;4286960;33;44014;-76
2021/04/08 00:40:50;;;;;;;;;;;3.50;82.30;;;;;;4287973;33;20071;-76
2021/04/08 00:43:19;;;;;;;;;;;3.50;82.40;;;;;;4288059;33;20070;-76
2021/04/08 00:45:51;;;;;;;;;;;3.50;82.40;;;;;;4287796;33;20010;-76
2021/04/08 00:48:26;;;;;;;;;;;3.50;82.50;;;;;;4263223;33;20008;-76
2021/04/08 00:51:02;;;;;;;;;;;3.60;82.50;;;;;;4288192;33;20480;-76
2021/04/08 00:53:37;;;;;;;;;;;3.50;82.40;;;;;;4263335;33;20038;-76
2021/04/08 00:56:08;;;;;;;;;;;3.60;82.40;;;;;;4275183;33;20020;-76
2021/04/08 00:58:44;;;;;;;;;;;3.60;82.40;;;;;;4275168;33;20005;-76
2021/04/08 01:01:20;;;;;;;;;;;3.50;82.30;;;;;;4286912;33;41306;-76
2021/04/08 01:03:53;;;;;;;;;;;3.50;82.40;;;;;;4286648;33;44039;-76
2021/04/08 01:06:28;;;;;;;;;;;3.50;82.50;;;;;;4286865;33;44269;-76
2021/04/08 01:08:58;;;;;;;;;;;3.50;82.40;;;;;;4289153;33;20025;-76
2021/04/08 01:11:33;;;;;;;;;;;3.50;82.50;;;;;;4276460;33;42164;-76
2021/04/08 01:14:05;;;;;;;;;;;3.50;82.50;;;;;;4289622;33;43290;-76
2021/04/08 01:16:39;;;;;;;;;;;3.50;82.50;;;;;;4277076;33;19995;-76
2021/04/08 01:19:28;;;;;;;;;;;3.50;82.50;;;;;;4277531;33;20009;-76
2021/04/08 01:22:07;;;;;;;;;;;3.50;82.50;;;;;;4270036;33;20014;-76
2021/04/08 01:24:55;;;;;;;;;;;3.50;82.50;;;;;;4277703;33;20015;-76
2021/04/08 01:27:37;;;;;;;;;;;3.50;82.50;;;;;;4290492;33;20042;-76
2021/04/08 01:30:39;;;;;;;;;;;3.50;82.50;;;;;;4290261;33;20019;-76
2021/04/08 01:33:13;;;;;;;;;;;3.50;82.50;;;;;;4261451;33;20026;-76
2021/04/08 01:35:51;;;;;;;;;;;3.50;82.50;;;;;;4286885;33;20024;-76
2021/04/08 01:38:33;;;;;;;;;;;3.50;82.50;;;;;;4265176;33;20392;-76
2021/04/08 01:41:09;;;;;;;;;;;3.50;82.50;;;;;;4265368;33;20007;-76
2021/04/08 01:43:44;;;;;;;;;;;3.50;82.50;;;;;;4290192;33;20014;-76
2021/04/08 01:46:27;;;;;;;;;;;3.50;82.50;;;;;;4277488;33;20058;-76
2021/04/08 01:48:58;;;;;;;;;;;3.50;82.60;;;;;;4275578;33;45353;-76
2021/04/08 01:51:32;;;;;;;;;;;3.50;82.50;;;;;;4277128;33;20010;-76
2021/04/08 01:54:05;;;;;;;;;;;3.50;82.50;;;;;;4275770;33;38207;-76
2021/04/08 01:56:44;;;;;;;;;;;3.50;82.50;;;;;;4290146;33;20017;-76
2021/04/08 01:59:17;;;;;;;;;;;3.50;82.50;;;;;;4275925;33;35554;-76
2021/04/08 02:01:53;;;;;;;;;;;3.50;82.60;;;;;;4265061;33;20006;-76
2021/04/08 02:04:27;;;;;;;;;;;3.40;82.50;;;;;;4276686;33;20006;-76
2021/04/08 02:07:04;;;;;;;;;;;3.50;82.60;;;;;;4276970;33;20017;-76
2021/04/08 02:09:37;;;;;;;;;;;3.50;82.60;;;;;;4265078;33;20010;-76
2021/04/08 02:12:14;;;;;;;;;;;3.50;82.50;;;;;;4289901;33;20070;-76
2021/04/08 02:14:45;;;;;;;;;;;3.50;82.50;;;;;;4275869;33;36131;-76
2021/04/08 02:17:23;;;;;;;;;;;3.50;82.50;;;;;;4276921;33;20024;-76
2021/04/08 02:19:56;;;;;;;;;;;3.40;82.50;;;;;;4288200;33;41525;-76
2021/04/08 02:22:26;;;;;;;;;;;3.40;82.50;;;;;;4276834;33;20010;-76
2021/04/08 02:24:59;;;;;;;;;;;3.40;82.50;;;;;;4276434;33;20048;-76
2021/04/08 02:27:31;;;;;;;;;;;3.50;82.60;;;;;;4288086;33;43654;-76
2021/04/08 02:30:04;;;;;;;;;;;3.50;82.60;;;;;;4275047;33;44172;-75
2021/04/08 02:32:36;;;;;;;;;;;3.50;82.50;;;;;;4276311;33;20050;-76
2021/04/08 02:35:08;;;;;;;;;;;3.40;82.40;;;;;;4274897;33;38008;-76
2021/04/08 02:37:46;;;;;;;;;;;3.40;82.50;;;;;;4276043;33;20006;-76
2021/04/08 02:40:20;;;;;;;;;;;3.40;82.50;;;;;;4274816;33;43375;-76
2021/04/08 02:42:55;;;;;;;;;;;3.50;82.50;;;;;;4264295;33;20396;-76
2021/04/08 02:45:28;;;;;;;;;;;3.40;82.40;;;;;;4274848;33;43797;-76
2021/04/08 02:48:01;;;;;;;;;;;3.40;82.40;;;;;;4264098;33;20483;-76
2021/04/08 02:50:40;;;;;;;;;;;3.40;82.40;;;;;;4289194;33;20066;-76
2021/04/08 02:53:19;;;;;;;;;;;3.40;82.40;;;;;;4289588;33;20062;-75
2021/04/08 02:55:59;;;;;;;;;;;3.40;82.30;;;;;;4289507;33;20070;-75
2021/04/08 02:58:40;;;;;;;;;;;3.40;82.20;;;;;;4276045;33;20054;-75
2021/04/08 03:01:13;;;;;;;;;;;3.40;82.30;;;;;;4276208;33;20069;-76
2021/04/08 03:04:05;;;;;;;;;;;3.40;82.20;;;;;;4276077;33;20070;-76
2021/04/08 03:06:38;;;;;;;;;;;3.50;82.10;;;;;;4275601;33;20040;-75
2021/04/08 03:09:18;;;;;;;;;;;3.50;82.00;;;;;;4289292;33;20003;-76
2021/04/08 03:11:59;;;;;;;;;;;3.50;81.90;;;;;;4276511;33;20074;-76
2021/04/08 03:14:37;;;;;;;;;;;3.50;81.90;;;;;;4276039;33;20014;-76
2021/04/08 03:17:16;;;;;;;;;;;3.50;81.90;;;;;;4275679;33;20066;-76
2021/04/08 03:19:56;;;;;;;;;;;3.50;82.00;;;;;;4275974;33;20021;-76
2021/04/08 03:22:28;;;;;;;;;;;3.50;81.90;;;;;;4275957;33;20014;-76
2021/04/08 03:25:04;;;;;;;;;;;3.50;81.90;;;;;;4275865;33;20017;-76
2021/04/08 03:27:43;;;;;;;;;;;3.50;81.80;;;;;;4288673;33;20018;-76
2021/04/08 03:30:19;;;;;;;;;;;3.50;81.60;;;;;;4288962;33;20010;-76
2021/04/08 03:33:02;;;;;;;;;;;3.40;81.50;;;;;;4264481;33;20007;-76
2021/04/08 03:35:40;;;;;;;;;;;3.40;81.50;;;;;;4275821;33;20014;-76
2021/04/08 03:38:21;;;;;;;;;;;3.40;81.50;;;;;;4275549;33;20022;-76
2021/04/08 03:40:56;;;;;;;;;;;3.40;81.50;;;;;;4275647;33;20053;-75
2021/04/08 03:43:34;;;;;;;;;;;3.40;81.50;;;;;;4276147;33;20013;-76
2021/04/08 03:46:10;;;;;;;;;;;3.40;81.40;;;;;;4288680;33;20040;-76
2021/04/08 03:48:46;;;;;;;;;;;3.40;81.40;;;;;;4275201;33;20029;-76
2021/04/08 03:51:27;;;;;;;;;;;3.40;81.40;;;;;;4275394;33;20089;-76
2021/04/08 03:54:14;;;;;;;;;;;3.40;81.50;;;;;;4276232;33;20464;-76
2021/04/08 03:56:49;;;;;;;;;;;3.40;81.40;;;;;;4288545;33;20021;-76
2021/04/08 03:59:28;;;;;;;;;;;3.40;81.50;;;;;;4275657;33;19999;-76
2021/04/08 04:02:00;;;;;;;;;;;3.40;81.50;;;;;;4288548;33;20033;-76
2021/04/08 04:04:34;;;;;;;;;;;3.30;81.50;;;;;;4263455;33;20062;-76
2021/04/08 04:07:09;;;;;;;;;;;3.30;81.60;;;;;;4274094;33;36015;-76
2021/04/08 04:09:52;;;;;;;;;;;3.30;81.60;;;;;;4262985;33;31787;-76
2021/04/08 04:12:25;;;;;;;;;;;3.30;81.80;;;;;;4287124;33;44080;-76
2021/04/08 04:15:08;;;;;;;;;;;3.30;81.80;;;;;;4276493;33;20010;-76
2021/04/08 04:17:38;;;;;;;;;;;3.30;81.80;;;;;;4262313;33;27252;-76
2021/04/08 04:20:08;;;;;;;;;;;3.30;81.80;;;;;;4287044;33;43559;-76
2021/04/08 04:22:42;;;;;;;;;;;3.30;81.80;;;;;;4262526;33;42375;-76
2021/04/08 04:25:18;;;;;;;;;;;3.30;81.80;;;;;;4275427;33;20011;-76
2021/04/08 04:27:56;;;;;;;;;;;3.30;81.80;;;;;;4262353;33;37444;-76
2021/04/08 04:30:28;;;;;;;;;;;3.20;81.70;;;;;;4273772;33;43406;-76
2021/04/08 04:33:03;;;;;;;;;;;3.20;81.70;;;;;;4287088;33;42654;-76
2021/04/08 04:35:45;;;;;;;;;;;3.20;81.70;;;;;;4275212;33;20011;-76
2021/04/08 04:38:17;;;;;;;;;;;3.20;81.70;;;;;;4287167;33;29933;-76
2021/04/08 04:40:56;;;;;;;;;;;3.20;81.70;;;;;;4263358;33;20003;-75
2021/04/08 04:43:25;;;;;;;;;;;3.20;81.70;;;;;;4276709;33;20019;-76
2021/04/08 04:45:55;;;;;;;;;;;3.20;81.70;;;;;;4276520;33;39127;-76
2021/04/08 04:48:27;;;;;;;;;;;3.10;81.70;;;;;;4291032;33;20432;-76
2021/04/08 04:51:02;;;;;;;;;;;3.10;81.70;;;;;;4291081;33;20037;-76
2021/04/08 04:53:32;;;;;;;;;;;3.10;81.80;;;;;;4277963;33;20015;-76
2021/04/08 04:56:05;;;;;;;;;;;3.10;81.80;;;;;;4277564;33;20037;-76
2021/04/08 04:58:34;;;;;;;;;;;3.10;81.80;;;;;;4290184;33;25241;-76
2021/04/08 05:01:09;;;;;;;;;;;3.10;81.80;;;;;;4290824;33;20044;-76
2021/04/08 05:03:42;;;;;;;;;;;3.10;81.80;;;;;;4276586;33;43503;-76
2021/04/08 05:06:21;;;;;;;;;;;3.10;81.70;;;;;;4290789;33;20033;-76
2021/04/08 05:08:53;;;;;;;;;;;3.10;81.70;;;;;;4290641;33;20066;-76
2021/04/08 05:11:32;;;;;;;;;;;3.10;81.70;;;;;;4290851;33;20562;-76
2021/04/08 05:14:07;;;;;;;;;;;3.10;81.70;;;;;;4277466;33;20087;-76
2021/04/08 05:16:40;;;;;;;;;;;3.10;81.70;;;;;;4276423;33;43641;-76
2021/04/08 05:19:14;;;;;;;;;;;3.20;81.60;;;;;;4289531;33;35423;-76
2021/04/08 05:21:50;;;;;;;;;;;3.10;81.50;;;;;;4277602;33;20013;-76
2021/04/08 05:24:19;;;;;;;;;;;3.10;82.10;;;;;;4290297;33;20014;-76
2021/04/08 05:26:57;;;;;;;;;;;3.10;81.40;;;;;;4290304;33;20345;-76
2021/04/08 05:29:30;;;;;;;;;;;3.10;81.40;;;;;;4276283;33;44517;-76
2021/04/08 05:31:59;;;;;;;;;;;3.10;81.30;;;;;;4276513;33;37849;-76
2021/04/08 05:34:29;;;;;;;;;;;3.10;81.30;;;;;;4275892;33;44372;-76
2021/04/08 05:36:59;;;;;;;;;;;3.10;81.20;;;;;;4265121;33;20049;-76
2021/04/08 05:39:31;;;;;;;;;;;3.10;81.30;;;;;;4276428;33;29716;-76
2021/04/08 05:42:04;;;;;;;;;;;3.10;81.30;;;;;;4277544;33;20078;-76
2021/04/08 05:44:38;;;;;;;;;;;3.20;81.30;;;;;;4265576;33;19994;-76
2021/04/08 05:47:10;;;;;;;;;;;3.10;81.30;;;;;;4290202;33;20060;-76
2021/04/08 05:49:43;;;;;;;;;;;3.10;82.10;;;;;;4276114;33;40643;-76
2021/04/08 05:52:21;;;;;;;;;;;3.10;81.30;;;;;;4276842;33;20024;-76
2021/04/08 05:54:50;;;;;;;;;;;3.00;81.40;;;;;;4288360;33;44364;-76
2021/04/08 05:57:23;;;;;;;;;;;3.10;81.40;;;;;;4277213;33;20085;-76
2021/04/08 05:59:56;;;;;;;;;;;3.10;81.40;;;;;;4276077;33;31247;-76
2021/04/08 06:02:34;;;;;;;;;;;3.10;81.40;;;;;;4276379;33;43710;-76
2021/04/08 06:05:05;;;;;;;;;;;3.10;81.40;;;;;;4275424;33;43004;-76
2021/04/08 06:07:40;;;;;;;;;;;3.10;81.30;;;;;;4290093;33;20041;-76
2021/04/08 06:10:12;;;;;;;;;;;3.10;81.30;;;;;;4265140;33;20042;-76
2021/04/08 06:12:45;;;;;;;;;;;3.10;81.30;;;;;;4288750;33;41563;-76
2021/04/08 06:15:18;;;;;;;;;;;3.10;81.30;;;;;;4275254;33;45713;-76
2021/04/08 06:17:50;;;;;;;;;;;3.10;81.30;;;;;;4265038;33;20003;-76
2021/04/08 06:20:30;;;;;;;;;;;3.10;81.20;;;;;;4276970;33;20011;-76
2021/04/08 06:23:05;;;;;;;;;;;3.10;81.20;;;;;;4289742;33;20029;-76
2021/04/08 06:25:39;;;;;;;;;;;3.10;81.20;;;;;;4288074;33;39465;-76
2021/04/08 06:28:15;;;;;;;;;;;3.10;81.10;;;;;;4289241;33;20006;-75
2021/04/08 06:30:50;;;;;;;;;;;3.10;81.30;;;;;;4276653;33;20397;-76
2021/04/08 06:33:23;;;;;;;;;;;3.10;81.10;;;;;;4276500;33;20002;-76
2021/04/08 06:35:58;;;;;;;;;;;3.10;81.10;;;;;;4288221;33;43114;-76
2021/04/08 06:38:30;;;;;;;;;;;3.10;81.00;;;;;;4274759;33;46282;-76
2021/04/08 06:41:05;;;;;;;;;;;3.10;81.00;;;;;;4276451;33;20019;-76
2021/04/08 06:43:39;;;;;;;;;;;3.10;80.90;;;;;;4275161;33;40313;-76
2021/04/08 06:46:11;;;;;;;;;;;3.10;80.90;;;;;;4275237;33;44324;-75
2021/04/08 06:48:50;;;;;;;;;;;3.20;80.80;;;;;;4276209;33;20014;-76
2021/04/08 06:51:26;;;;;;;;;;;3.20;80.90;;;;;;4264633;33;19998;-75
2021/04/08 06:53:55;;;;;;;;;;;3.20;80.80;;;;;;4275073;33;44839;-75
2021/04/08 06:56:30;;;;;;;;;;;3.20;80.80;;;;;;4288027;33;43353;-75
2021/04/08 06:59:00;;;;;;;;;;;3.20;80.80;;;;;;4275030;33;43178;-75
2021/04/08 07:01:35;;;;;;;;;;;3.20;80.60;;;;;;4276096;33;36070;-76
2021/04/08 07:04:03;;;;;;;;;;;3.20;80.50;;;;;;4287941;33;43952;-76
2021/04/08 07:06:30;;;;;;;;;;;3.20;80.40;;;;;;4274810;33;45018;-76
2021/04/08 07:09:08;;;;;;;;;;;3.20;80.40;;;;;;4276285;33;20445;-76
2021/04/08 07:11:40;;;;;;;;;;;3.20;80.30;;;;;;4288127;33;35925;-76
2021/04/08 07:14:13;;;;;;;;;;;3.20;80.30;;;;;;4263131;33;35539;-76
2021/04/08 07:16:51;;;;;;;;;;;3.30;80.30;;;;;;4274622;33;43018;-76
2021/04/08 07:19:26;;;;;;;;;;;3.30;80.30;;;;;;4287788;33;40542;-76
2021/04/08 07:22:01;;;;;;;;;;;3.30;80.20;;;;;;4288916;33;20013;-76
2021/04/08 07:24:51;;;;;;;;;;;3.30;80.00;;;;;;4262978;33;38465;-76
2021/04/08 07:27:22;;;;;;;;;;;3.30;80.00;;;;;;4287493;33;45247;-75
2021/04/08 07:29:55;;;;;;;;;;;3.30;80.00;;;;;;4262576;33;45495;-76
2021/04/08 07:32:42;;;;;;;;;;;3.40;80.00;;;;;;4275372;33;20400;-76
2021/04/08 07:35:21;;;;;;;;;;;3.30;79.80;;;;;;4274265;33;43369;-76
2021/04/08 07:37:59;;;;;;;;;;;3.30;79.70;;;;;;4274447;33;36650;-76
2021/04/08 07:40:31;;;;;;;;;;;3.40;79.90;;;;;;4288522;33;20015;-77
2021/04/08 07:43:17;;;;;;;;;;;3.40;79.80;;;;;;4288935;33;20006;-77
2021/04/08 07:45:52;;;;;;;;;;;3.40;79.80;;;;;;4274551;33;43536;-77
2021/04/08 07:48:37;;;;;;;;;;;3.40;79.80;;;;;;4274092;33;35782;-77
2021/04/08 07:51:10;;;;;;;;;;;3.40;79.70;;;;;;4288517;33;20014;-77
2021/04/08 07:53:43;;;;;;;;;;;3.50;79.70;;;;;;4263626;33;20423;-77
2021/04/08 07:56:31;;;;;;;;;;;3.40;79.50;;;;;;4275069;33;19995;-77
2021/04/08 07:59:19;;;;;;;;;;;3.50;79.50;;;;;;4288551;33;20129;-77
2021/04/08 08:02:11;;;;;;;;;;;3.50;79.30;;;;;;4288699;33;20058;-77
2021/04/08 08:04:46;;;;;;;;;;;3.50;79.30;;;;;;4286873;33;44109;-77
2021/04/08 08:07:35;;;;;;;;;;;3.60;79.20;;;;;;4274376;33;38827;-77
2021/04/08 08:10:06;;;;;;;;;;;3.50;79.10;;;;;;4287168;33;43669;-77
2021/04/08 08:12:38;;;;;;;;;;;3.60;78.80;;;;;;4275306;33;20039;-77
2021/04/08 08:15:16;;;;;;;;;;;3.60;78.90;;;;;;4275482;33;19999;-77
2021/04/08 08:17:54;;;;;;;;;;;3.60;78.90;;;;;;4278069;33;20010;-77
2021/04/08 08:20:30;;;;;;;;;;;3.60;79.00;;;;;;4268189;33;20002;-77
2021/04/08 08:22:59;;;;;;;;;;;3.70;79.00;;;;;;4279064;33;43093;-77
2021/04/08 08:25:31;;;;;;;;;;;3.70;78.90;;;;;;4292954;33;20024;-77
2021/04/08 08:28:06;;;;;;;;;;;3.70;78.80;;;;;;4280190;33;20139;-77
2021/04/08 08:30:52;;;;;;;;;;;3.70;78.60;;;;;;4280174;33;20036;-77
2021/04/08 08:33:29;;;;;;;;;;;3.70;78.50;;;;;;4278825;33;31091;-77
2021/04/08 08:36:03;;;;;;;;;;;3.80;78.30;;;;;;4292010;33;41487;-77
2021/04/08 08:38:35;;;;;;;;;;;3.80;78.30;;;;;;4279026;33;42253;-77
2021/04/08 08:41:11;;;;;;;;;;;3.80;78.10;;;;;;4279779;33;20002;-77
2021/04/08 08:43:46;;;;;;;;;;;3.80;78.00;;;;;;4280201;33;20352;-77
2021/04/08 08:46:25;;;;;;;;;;;3.90;77.80;;;;;;4279787;33;20044;-77
2021/04/08 08:48:56;;;;;;;;;;;3.90;77.10;;;;;;4279015;33;37601;-77
2021/04/08 08:51:29;;;;;;;;;;;3.90;76.90;;;;;;4280144;33;20397;-77
2021/04/08 08:54:02;;;;;;;;;;;3.90;76.40;;;;;;4279743;33;20102;-76
2021/04/08 08:56:39;;;;;;;;;;;4.00;76.50;;;;;;4279762;33;20108;-76
2021/04/08 08:59:11;;;;;;;;;;;4.00;76.50;;;;;;4292568;33;20063;-77
2021/04/08 09:01:52;;;;;;;;;;;4.00;76.30;;;;;;4280256;33;20069;-77
2021/04/08 09:04:27;;;;;;;;;;;4.00;76.00;;;;;;4266385;33;43355;-77
2021/04/08 09:06:59;;;;;;;;;;;4.10;75.90;;;;;;4266951;33;45228;-77
2021/04/08 09:09:32;;;;;;;;;;;4.10;75.90;;;;;;4279518;33;20007;-77
2021/04/08 09:12:16;;;;;;;;;;;4.10;75.80;;;;;;4279997;33;20054;-77
2021/04/08 09:14:48;;;;;;;;;;;4.10;75.30;;;;;;4278431;33;46942;-77
2021/04/08 09:17:37;;;;;;;;;;;4.20;75.60;;;;;;4279430;33;20025;-77
2021/04/08 09:20:10;;;;;;;;;;;4.20;75.10;;;;;;4291231;33;36900;-77
2021/04/08 09:22:56;;;;;;;;;;;4.20;75.20;;;;;;4291337;33;42389;-77
2021/04/08 09:25:45;;;;;;;;;;;4.20;75.00;;;;;;4279799;33;20317;-77
2021/04/08 09:28:25;;;;;;;;;;;4.20;74.70;;;;;;4276116;33;20017;-77
2021/04/08 09:31:08;;;;;;;;;;;4.20;73.80;;;;;;4290002;33;20007;-77
2021/04/08 09:33:44;;;;;;;;;;;4.30;74.40;;;;;;4289095;33;43434;-76
2021/04/08 09:36:24;;;;;;;;;;;4.30;74.00;;;;;;4276774;33;33761;-76
2021/04/08 09:39:13;;;;;;;;;;;4.30;74.00;;;;;;4265203;33;20009;-76
2021/04/08 09:41:48;;;;;;;;;;;4.30;74.20;;;;;;4274767;33;20007;-76
2021/04/08 09:44:15;;;;;;;;;;;4.30;74.10;;;;;;4263799;33;44694;-76
2021/04/08 09:46:53;;;;;;;;;;;4.40;74.20;;;;;;4289638;33;23338;-76
2021/04/08 09:49:37;;;;;;;;;;;4.40;74.10;;;;;;4264178;33;41138;-76
2021/04/08 09:52:09;;;;;;;;;;;4.40;74.10;;;;;;4289738;33;20058;-76
2021/04/08 09:54:46;;;;;;;;;;;4.40;73.70;;;;;;4289965;33;20006;-76
2021/04/08 09:57:36;;;;;;;;;;;4.40;73.60;;;;;;4277165;33;20057;-76
2021/04/08 10:00:12;;;;;;;;;;;4.40;73.70;;;;;;4289459;33;20431;-76
2021/04/08 10:03:02;;;;;;;;;;;4.40;72.80;;;;;;4277118;33;20475;-76
2021/04/08 10:05:41;;;;;;;;;;;4.40;73.60;;;;;;4276726;33;20069;-76
2021/04/08 10:08:23;;;;;;;;;;;4.50;73.70;;;;;;4289750;33;20006;-76
2021/04/08 10:10:55;;;;;;;;;;;4.50;73.10;;;;;;4275718;33;35857;-76
2021/04/08 10:13:34;;;;;;;;;;;4.50;73.50;;;;;;4263952;33;41844;-76
2021/04/08 10:16:21;;;;;;;;;;;4.60;73.40;;;;;;4275573;33;44628;-76
2021/04/08 10:18:57;;;;;;;;;;;4.60;73.20;;;;;;4275350;33;41886;-76
2021/04/08 10:21:35;;;;;;;;;;;4.60;73.50;;;;;;4289145;33;20022;-76
2021/04/08 10:24:13;;;;;;;;;;;4.70;73.50;;;;;;4275315;33;38809;-76
2021/04/08 10:26:45;;;;;;;;;;;4.70;73.50;;;;;;4289372;33;20018;-76
2021/04/08 10:29:29;;;;;;;;;;;4.70;73.10;;;;;;4289414;33;20066;-76
2021/04/08 10:32:02;;;;;;;;;;;4.70;73.30;;;;;;4289361;33;20040;-76
2021/04/08 10:34:47;;;;;;;;;;;4.80;73.30;;;;;;4289624;33;20062;-76
2021/04/08 10:37:22;;;;;;;;;;;4.80;73.10;;;;;;4275426;33;42321;-76
2021/04/08 10:39:57;;;;;;;;;;;4.80;73.10;;;;;;4275543;33;29690;-76
2021/04/08 10:42:29;;;;;;;;;;;4.80;73.00;;;;;;4288368;33;38144;-76
2021/04/08 10:45:08;;;;;;;;;;;4.80;72.90;;;;;;4289466;33;20054;-76
2021/04/08 10:47:43;;;;;;;;;;;4.80;72.50;;;;;;4276262;33;20033;-76
2021/04/08 10:50:22;;;;;;;;;;;4.80;72.70;;;;;;4275668;33;34064;-76
2021/04/08 10:52:59;;;;;;;;;;;4.80;72.80;;;;;;4287865;33;42678;-76
2021/04/08 10:55:31;;;;;;;;;;;4.90;72.80;;;;;;4275557;33;26104;-76
2021/04/08 10:58:06;;;;;;;;;;;4.90;73.50;;;;;;4275137;33;44194;-76
2021/04/08 11:00:39;;;;;;;;;;;4.90;72.80;;;;;;4275093;33;43197;-76
2021/04/08 11:03:12;;;;;;;;;;;4.90;72.80;;;;;;4275333;33;20015;-75
2021/04/08 11:05:45;;;;;;;;;;;4.90;72.40;;;;;;4264396;33;20114;-75
2021/04/08 11:08:20;;;;;;;;;;;4.90;72.30;;;;;;4276064;33;20022;-75
2021/04/08 11:10:55;;;;;;;;;;;4.90;72.40;;;;;;4262732;33;45237;-76
2021/04/08 11:13:36;;;;;;;;;;;4.90;72.50;;;;;;4262935;33;46753;-75
2021/04/08 11:16:05;;;;;;;;;;;5.00;72.30;;;;;;4274863;33;38958;-75
2021/04/08 11:18:38;;;;;;;;;;;5.00;72.20;;;;;;4275396;33;20022;-75
2021/04/08 11:21:13;;;;;;;;;;;5.00;72.40;;;;;;4275566;33;20032;-75
2021/04/08 11:23:43;;;;;;;;;;;5.00;72.30;;;;;;4276245;33;20127;-75
2021/04/08 11:26:20;;;;;;;;;;;5.00;71.80;;;;;;4274979;33;44708;-75
2021/04/08 11:28:59;;;;;;;;;;;5.00;72.00;;;;;;4288793;33;20025;-75
2021/04/08 11:31:33;;;;;;;;;;;5.10;72.10;;;;;;4288780;33;20006;-75
2021/04/08 11:34:05;;;;;;;;;;;5.10;72.40;;;;;;4274467;33;43379;-75
2021/04/08 11:36:43;;;;;;;;;;;5.10;72.20;;;;;;4262318;33;45007;-75
2021/04/08 11:39:13;;;;;;;;;;;5.20;72.50;;;;;;4287376;33;44300;-75
2021/04/08 11:41:48;;;;;;;;;;;5.20;72.00;;;;;;4288273;33;20047;-75
2021/04/08 11:44:30;;;;;;;;;;;5.20;72.00;;;;;;4274415;33;38958;-75
2021/04/08 11:47:12;;;;;;;;;;;5.30;71.90;;;;;;4263402;33;20002;-75
2021/04/08 11:49:46;;;;;;;;;;;5.30;71.90;;;;;;4275522;33;20098;-75
2021/04/08 11:52:21;;;;;;;;;;;5.30;71.90;;;;;;4288192;33;20006;-75
2021/04/08 11:54:59;;;;;;;;;;;5.30;71.90;;;;;;4288641;33;20441;-75
2021/04/08 11:57:38;;;;;;;;;;;5.30;72.70;;;;;;4275215;33;20006;-75
2021/04/08 12:00:16;;;;;;;;;;;5.40;72.00;;;;;;4263453;33;20010;-75
2021/04/08 12:02:55;;;;;;;;;;;5.40;71.80;;;;;;4275697;33;20050;-75
2021/04/08 12:05:33;;;;;;;;;;;5.40;71.90;;;;;;4274376;33;42485;-75
2021/04/08 12:08:09;;;;;;;;;;;5.40;71.80;;;;;;4274529;33;42335;-75
2021/04/08 12:10:41;;;;;;;;;;;5.50;72.20;;;;;;4275713;33;20017;-74
2021/04/08 12:13:25;;;;;;;;;;;5.50;71.70;;;;;;4287378;33;44326;-75
2021/04/08 12:15:58;;;;;;;;;;;5.60;71.90;;;;;;4262446;33;34160;-75
2021/04/08 12:18:32;;;;;;;;;;;5.70;71.30;;;;;;4288442;33;20479;-75
2021/04/08 12:21:11;;;;;;;;;;;5.80;71.50;;;;;;4263268;33;20024;-75
2021/04/08 12:23:44;;;;;;;;;;;5.90;71.20;;;;;;4287251;33;44392;-75
2021/04/08 12:26:35;;;;;;;;;;;5.90;71.20;;;;;;4275197;33;20058;-75
2021/04/08 12:29:10;;;;;;;;;;;6.00;70.70;;;;;;4286795;33;32500;-75
2021/04/08 12:31:41;;;;;;;;;;;6.10;70.80;;;;;;4274812;33;20015;-75
2021/04/08 12:34:20;;;;;;;;;;;6.20;70.50;;;;;;4288243;33;20024;-75
2021/04/08 12:36:53;;;;;;;;;;;6.30;71.50;;;;;;4274583;33;20025;-75
2021/04/08 12:39:29;;;;;;;;;;;6.30;70.50;;;;;;4275336;33;20024;-75
2021/04/08 12:42:03;;;;;;;;;;;6.40;70.20;;;;;;4274499;33;36033;-75
2021/04/08 12:44:38;;;;;;;;;;;6.50;70.60;;;;;;4288189;33;20109;-75
2021/04/08 12:47:12;;;;;;;;;;;6.50;70.50;;;;;;4263325;33;20062;-75
2021/04/08 12:49:45;;;;;;;;;;;6.60;70.00;;;;;;4274016;33;45007;-75
2021/04/08 12:52:20;;;;;;;;;;;6.60;69.80;;;;;;4288150;33;20011;-75
2021/04/08 12:54:55;;;;;;;;;;;6.60;69.60;;;;;;4274769;33;29687;-75
2021/04/08 12:57:30;;;;;;;;;;;6.70;69.70;;;;;;4274957;33;20085;-75
2021/04/08 13:00:10;;;;;;;;;;;6.70;70.80;;;;;;4275015;33;20042;-75
2021/04/08 13:02:45;;;;;;;;;;;6.70;69.70;;;;;;4274090;33;34392;-75
2021/04/08 13:05:21;;;;;;;;;;;6.70;69.70;;;;;;4290851;33;20347;-75
2021/04/08 13:07:57;;;;;;;;;;;6.70;69.40;;;;;;4290738;33;20028;-75
2021/04/08 13:10:35;;;;;;;;;;;6.70;69.50;;;;;;4265880;33;20322;-75
2021/04/08 13:13:08;;;;;;;;;;;6.70;69.20;;;;;;4289618;33;38913;-75
2021/04/08 13:15:40;;;;;;;;;;;6.70;69.70;;;;;;4264427;33;43514;-75
2021/04/08 13:18:13;;;;;;;;;;;6.80;69.90;;;;;;4290483;33;20392;-75
2021/04/08 13:20:49;;;;;;;;;;;6.80;69.80;;;;;;4277392;33;19998;-75
2021/04/08 13:23:23;;;;;;;;;;;6.80;70.00;;;;;;4276303;33;38321;-75
2021/04/08 13:25:59;;;;;;;;;;;6.90;69.70;;;;;;4264119;33;44519;-75
2021/04/08 13:28:28;;;;;;;;;;;6.90;69.40;;;;;;4276267;33;41737;-75
2021/04/08 13:31:06;;;;;;;;;;;7.00;69.90;;;;;;4290274;33;20434;-75
2021/04/08 13:33:42;;;;;;;;;;;7.10;70.00;;;;;;4265088;33;20006;-75
2021/04/08 13:36:16;;;;;;;;;;;7.20;69.20;;;;;;4289429;33;33472;-75
2021/04/08 13:38:49;;;;;;;;;;;7.20;69.30;;;;;;4289789;33;20006;-75
2021/04/08 13:41:26;;;;;;;;;;;7.20;69.40;;;;;;4277612;33;20033;-75
2021/04/08 13:44:02;;;;;;;;;;;7.20;69.20;;;;;;4277752;33;20058;-75
2021/04/08 13:46:43;;;;;;;;;;;7.30;69.20;;;;;;4289278;33;35553;-75
2021/04/08 13:49:16;;;;;;;;;;;7.30;69.50;;;;;;4264214;33;38725;-75
2021/04/08 13:51:48;;;;;;;;;;;7.30;69.30;;;;;;4288965;33;42041;-75
2021/04/08 13:54:20;;;;;;;;;;;7.30;69.50;;;;;;4276629;33;31910;-75
2021/04/08 13:56:56;;;;;;;;;;;7.30;69.20;;;;;;4277133;33;20392;-76
2021/04/08 13:59:25;;;;;;;;;;;7.40;69.20;;;;;;4289306;33;26928;-75
2021/04/08 14:01:58;;;;;;;;;;;7.50;70.60;;;;;;4290127;33;20003;-75
2021/04/08 14:04:33;;;;;;;;;;;7.50;69.40;;;;;;4275940;33;42502;-75
2021/04/08 14:07:08;;;;;;;;;;;7.60;68.90;;;;;;4265086;33;20499;-75
2021/04/08 14:09:44;;;;;;;;;;;7.60;69.00;;;;;;4264790;33;20003;-76
2021/04/08 14:12:16;;;;;;;;;;;7.70;68.70;;;;;;4289358;33;20006;-76
2021/04/08 14:14:52;;;;;;;;;;;7.70;68.20;;;;;;4276562;33;20011;-75
2021/04/08 14:17:27;;;;;;;;;;;7.70;68.20;;;;;;4276820;33;20076;-76
2021/04/08 14:20:00;;;;;;;;;;;7.80;68.50;;;;;;4276800;33;20046;-76
2021/04/08 14:22:37;;;;;;;;;;;7.80;68.60;;;;;;4276946;33;20137;-75
2021/04/08 14:25:15;;;;;;;;;;;7.90;68.70;;;;;;4263818;33;39155;-76
2021/04/08 14:27:48;;;;;;;;;;;7.90;68.90;;;;;;4275848;33;31478;-76
2021/04/08 14:30:20;;;;;;;;;;;7.90;68.40;;;;;;4275052;33;43640;-76
2021/04/08 14:32:53;;;;;;;;;;;7.90;68.70;;;;;;4276774;33;20022;-76
2021/04/08 14:35:27;;;;;;;;;;;8.00;69.40;;;;;;4265046;33;20113;-76
2021/04/08 14:38:05;;;;;;;;;;;8.00;69.10;;;;;;4289418;33;20018;-76
2021/04/08 14:40:40;;;;;;;;;;;8.10;68.90;;;;;;4276803;33;20014;-75
2021/04/08 14:43:18;;;;;;;;;;;8.10;68.50;;;;;;4276557;33;20054;-75
2021/04/08 14:46:00;;;;;;;;;;;8.10;68.70;;;;;;4288341;33;41745;-76
2021/04/08 14:48:33;;;;;;;;;;;8.10;68.70;;;;;;4275671;33;30021;-76
2021/04/08 14:51:05;;;;;;;;;;;8.20;68.50;;;;;;4289555;33;20066;-76
2021/04/08 14:53:43;;;;;;;;;;;8.20;68.70;;;;;;4276038;33;19995;-76
2021/04/08 14:56:18;;;;;;;;;;;8.20;68.50;;;;;;4264688;33;20121;-76
2021/04/08 14:58:53;;;;;;;;;;;8.20;68.70;;;;;;4264401;33;19995;-76
2021/04/08 15:01:26;;;;;;;;;;;8.20;68.70;;;;;;4262743;33;44739;-76
2021/04/08 15:04:02;;;;;;;;;;;8.30;69.00;;;;;;4275007;33;30922;-76
2021/04/08 15:06:38;;;;;;;;;;;8.30;68.60;;;;;;4288131;33;35797;-76
2021/04/08 15:09:13;;;;;;;;;;;8.30;68.60;;;;;;4287698;33;41205;-76
2021/04/08 15:11:50;;;;;;;;;;;8.30;69.00;;;;;;4288048;33;39221;-76
2021/04/08 15:14:22;;;;;;;;;;;8.30;68.90;;;;;;4287810;33;43582;-76
2021/04/08 15:16:52;;;;;;;;;;;8.40;68.80;;;;;;4263947;33;20005;-76
2021/04/08 15:19:27;;;;;;;;;;;8.40;69.00;;;;;;4274489;33;36369;-76
2021/04/08 15:22:00;;;;;;;;;;;8.40;68.80;;;;;;4288781;33;20010;-76